sensor_id;sensor_type;location;lat;lon;timestamp;P1;durP1;ratioP1;P2;durP2;ratioP2
54983;SDS011;40884;53.562;9.940;2023-05-25T00:00:52;9.93;;;4.23;;
54983;SDS011;40884;53.562;9.940;2023-05-25T00:01:53;11.20;;;4.90;;
54983;SDS011;40884;53.562;9.940;2023-05-25T00:02:53;12.17;;;4.27;;
54983;SDS011;40884;53.562;9.940;2023-05-25T00:03:53;10.10;;;4.40;;
54983;SDS011;40884;53.562;9.940;2023-05-25T00:04:53;8.67;;;4.73;;
54983;SDS011;40884;53.562;9.940;2023-05-25T00:05:53;11.77;;;4.67;;
54983;SDS011;40884;53.562;9.940;2023-05-25T00:06:53;11.10;;;4.90;;
54983;SDS011;40884;53.562;9.940;2023-05-25T00:07:54;11.10;;;5.10;;
54983;SDS011;40884;53.562;9.940;2023-05-25T00:08:54;12.70;;;4.63;;
54983;SDS011;40884;53.562;9.940;2023-05-25T00:09:54;13.83;;;4.43;;
54983;SDS011;40884;53.562;9.940;2023-05-25T00:10:54;10.67;;;4.83;;
54983;SDS011;40884;53.562;9.940;2023-05-25T00:11:55;9.50;;;4.37;;
54983;SDS011;40884;53.562;9.940;2023-05-25T00:12:55;13.33;;;4.17;;
54983;SDS011;40884;53.562;9.940;2023-05-25T00:13:55;13.00;;;5.50;;
54983;SDS011;40884;53.562;9.940;2023-05-25T00:14:55;13.80;;;5.77;;
54983;SDS011;40884;53.562;9.940;2023-05-25T00:15:55;15.77;;;6.37;;
54983;SDS011;40884;53.562;9.940;2023-05-25T00:16:55;10.07;;;4.53;;
54983;SDS011;40884;53.562;9.940;2023-05-25T00:17:55;8.37;;;4.20;;
54983;SDS011;40884;53.562;9.940;2023-05-25T00:18:55;9.37;;;4.17;;
54983;SDS011;40884;53.562;9.940;2023-05-25T00:19:56;12.60;;;4.73;;
54983;SDS011;40884;53.562;9.940;2023-05-25T00:20:56;14.73;;;5.07;;
54983;SDS011;40884;53.562;9.940;2023-05-25T00:21:57;13.70;;;5.03;;
54983;SDS011;40884;53.562;9.940;2023-05-25T00:22:57;13.23;;;4.63;;
54983;SDS011;40884;53.562;9.940;2023-05-25T00:23:57;11.17;;;5.20;;
54983;SDS011;40884;53.562;9.940;2023-05-25T00:24:57;13.17;;;5.03;;
54983;SDS011;40884;53.562;9.940;2023-05-25T00:25:58;9.97;;;4.60;;
54983;SDS011;40884;53.562;9.940;2023-05-25T00:26:58;10.10;;;4.77;;
54983;SDS011;40884;53.562;9.940;2023-05-25T00:27:58;13.97;;;6.13;;
54983;SDS011;40884;53.562;9.940;2023-05-25T00:28:58;12.70;;;5.43;;
54983;SDS011;40884;53.562;9.940;2023-05-25T00:29:58;14.63;;;5.47;;
54983;SDS011;40884;53.562;9.940;2023-05-25T00:30:58;11.10;;;5.73;;
54983;SDS011;40884;53.562;9.940;2023-05-25T00:31:59;14.67;;;5.40;;
54983;SDS011;40884;53.562;9.940;2023-05-25T00:32:59;7.40;;;4.50;;
54983;SDS011;40884;53.562;9.940;2023-05-25T00:33:59;11.77;;;5.63;;
54983;SDS011;40884;53.562;9.940;2023-05-25T00:34:59;13.60;;;6.30;;
54983;SDS011;40884;53.562;9.940;2023-05-25T00:35:59;13.47;;;6.00;;
54983;SDS011;40884;53.562;9.940;2023-05-25T00:36:59;12.80;;;5.80;;
54983;SDS011;40884;53.562;9.940;2023-05-25T00:38:00;14.73;;;6.50;;
54983;SDS011;40884;53.562;9.940;2023-05-25T00:39:00;12.97;;;5.73;;
54983;SDS011;40884;53.562;9.940;2023-05-25T00:40:00;13.40;;;5.37;;
54983;SDS011;40884;53.562;9.940;2023-05-25T00:41:01;15.00;;;6.37;;
54983;SDS011;40884;53.562;9.940;2023-05-25T00:42:01;14.10;;;7.10;;
54983;SDS011;40884;53.562;9.940;2023-05-25T00:43:01;10.67;;;5.53;;
54983;SDS011;40884;53.562;9.940;2023-05-25T00:44:01;14.27;;;6.23;;
54983;SDS011;40884;53.562;9.940;2023-05-25T00:45:01;14.67;;;6.27;;
54983;SDS011;40884;53.562;9.940;2023-05-25T00:46:02;13.47;;;6.43;;
54983;SDS011;40884;53.562;9.940;2023-05-25T00:47:02;13.00;;;6.23;;
54983;SDS011;40884;53.562;9.940;2023-05-25T00:48:03;12.00;;;6.00;;
54983;SDS011;40884;53.562;9.940;2023-05-25T00:49:03;13.17;;;6.30;;
54983;SDS011;40884;53.562;9.940;2023-05-25T00:50:04;13.60;;;6.83;;
54983;SDS011;40884;53.562;9.940;2023-05-25T00:51:08;14.40;;;6.43;;
54983;SDS011;40884;53.562;9.940;2023-05-25T00:52:09;12.77;;;6.33;;
54983;SDS011;40884;53.562;9.940;2023-05-25T00:53:11;11.23;;;6.57;;
54983;SDS011;40884;53.562;9.940;2023-05-25T00:54:11;13.53;;;6.50;;
54983;SDS011;40884;53.562;9.940;2023-05-25T00:55:12;10.40;;;5.87;;
54983;SDS011;40884;53.562;9.940;2023-05-25T00:56:18;12.50;;;6.40;;
54983;SDS011;40884;53.562;9.940;2023-05-25T00:57:21;13.00;;;6.60;;
54983;SDS011;40884;53.562;9.940;2023-05-25T00:58:22;13.40;;;6.60;;
54983;SDS011;40884;53.562;9.940;2023-05-25T00:59:25;13.63;;;6.37;;
54983;SDS011;40884;53.562;9.940;2023-05-25T01:00:27;14.10;;;6.83;;
54983;SDS011;40884;53.562;9.940;2023-05-25T01:01:27;13.67;;;6.90;;
54983;SDS011;40884;53.562;9.940;2023-05-25T01:02:30;15.50;;;6.60;;
54983;SDS011;40884;53.562;9.940;2023-05-25T01:03:33;14.70;;;7.17;;
54983;SDS011;40884;53.562;9.940;2023-05-25T01:04:35;10.80;;;5.97;;
54983;SDS011;40884;53.562;9.940;2023-05-25T01:05:35;14.33;;;6.27;;
54983;SDS011;40884;53.562;9.940;2023-05-25T01:06:35;15.97;;;6.40;;
54983;SDS011;40884;53.562;9.940;2023-05-25T01:07:37;12.97;;;6.50;;
54983;SDS011;40884;53.562;9.940;2023-05-25T01:08:39;15.17;;;6.77;;
54983;SDS011;40884;53.562;9.940;2023-05-25T01:09:40;12.67;;;7.17;;
54983;SDS011;40884;53.562;9.940;2023-05-25T01:10:43;13.80;;;6.40;;
54983;SDS011;40884;53.562;9.940;2023-05-25T01:11:45;15.47;;;6.73;;
54983;SDS011;40884;53.562;9.940;2023-05-25T01:12:47;15.37;;;6.80;;
54983;SDS011;40884;53.562;9.940;2023-05-25T01:13:51;12.37;;;6.30;;
54983;SDS011;40884;53.562;9.940;2023-05-25T01:14:52;11.77;;;6.50;;
54983;SDS011;40884;53.562;9.940;2023-05-25T01:15:52;11.77;;;5.97;;
54983;SDS011;40884;53.562;9.940;2023-05-25T01:16:53;15.53;;;6.73;;
54983;SDS011;40884;53.562;9.940;2023-05-25T01:17:53;16.20;;;6.90;;
54983;SDS011;40884;53.562;9.940;2023-05-25T01:18:54;13.93;;;7.17;;
54983;SDS011;40884;53.562;9.940;2023-05-25T01:19:54;14.53;;;7.20;;
54983;SDS011;40884;53.562;9.940;2023-05-25T01:20:58;15.50;;;6.67;;
54983;SDS011;40884;53.562;9.940;2023-05-25T01:22:01;11.13;;;6.43;;
54983;SDS011;40884;53.562;9.940;2023-05-25T01:23:09;15.77;;;7.20;;
54983;SDS011;40884;53.562;9.940;2023-05-25T01:24:12;14.67;;;6.70;;
54983;SDS011;40884;53.562;9.940;2023-05-25T01:25:19;15.87;;;6.70;;
54983;SDS011;40884;53.562;9.940;2023-05-25T01:26:21;17.77;;;7.33;;
54983;SDS011;40884;53.562;9.940;2023-05-25T01:27:25;14.93;;;7.43;;
54983;SDS011;40884;53.562;9.940;2023-05-25T01:28:29;16.50;;;8.27;;
54983;SDS011;40884;53.562;9.940;2023-05-25T01:29:29;14.63;;;6.97;;
54983;SDS011;40884;53.562;9.940;2023-05-25T01:30:32;19.83;;;7.30;;
54983;SDS011;40884;53.562;9.940;2023-05-25T01:31:32;14.47;;;7.73;;
54983;SDS011;40884;53.562;9.940;2023-05-25T01:32:34;16.17;;;7.53;;
54983;SDS011;40884;53.562;9.940;2023-05-25T01:33:35;12.87;;;7.00;;
54983;SDS011;40884;53.562;9.940;2023-05-25T01:34:36;15.43;;;7.67;;
54983;SDS011;40884;53.562;9.940;2023-05-25T01:35:36;11.63;;;7.10;;
54983;SDS011;40884;53.562;9.940;2023-05-25T01:36:37;16.73;;;7.30;;
54983;SDS011;40884;53.562;9.940;2023-05-25T01:37:44;15.07;;;7.93;;
54983;SDS011;40884;53.562;9.940;2023-05-25T01:38:44;12.50;;;6.83;;
54983;SDS011;40884;53.562;9.940;2023-05-25T01:39:44;17.27;;;7.37;;
54983;SDS011;40884;53.562;9.940;2023-05-25T01:40:44;15.87;;;7.30;;
54983;SDS011;40884;53.562;9.940;2023-05-25T01:41:44;13.70;;;7.53;;
54983;SDS011;40884;53.562;9.940;2023-05-25T01:42:45;13.20;;;7.17;;
54983;SDS011;40884;53.562;9.940;2023-05-25T01:43:45;12.87;;;6.87;;
54983;SDS011;40884;53.562;9.940;2023-05-25T01:44:45;13.37;;;6.80;;
54983;SDS011;40884;53.562;9.940;2023-05-25T01:45:45;18.00;;;7.70;;
54983;SDS011;40884;53.562;9.940;2023-05-25T01:46:46;14.97;;;7.10;;
54983;SDS011;40884;53.562;9.940;2023-05-25T01:48:01;14.53;;;7.33;;
54983;SDS011;40884;53.562;9.940;2023-05-25T01:49:08;18.57;;;7.87;;
54983;SDS011;40884;53.562;9.940;2023-05-25T01:50:14;18.13;;;7.53;;
54983;SDS011;40884;53.562;9.940;2023-05-25T01:51:20;16.60;;;8.00;;
54983;SDS011;40884;53.562;9.940;2023-05-25T01:52:26;15.47;;;7.00;;
54983;SDS011;40884;53.562;9.940;2023-05-25T01:53:34;16.43;;;7.57;;
54983;SDS011;40884;53.562;9.940;2023-05-25T01:54:36;17.37;;;7.40;;
54983;SDS011;40884;53.562;9.940;2023-05-25T01:55:38;14.37;;;8.20;;
54983;SDS011;40884;53.562;9.940;2023-05-25T01:56:41;15.47;;;7.23;;
54983;SDS011;40884;53.562;9.940;2023-05-25T01:57:43;12.23;;;7.30;;
54983;SDS011;40884;53.562;9.940;2023-05-25T01:58:45;13.90;;;7.50;;
54983;SDS011;40884;53.562;9.940;2023-05-25T01:59:47;15.57;;;7.47;;
54983;SDS011;40884;53.562;9.940;2023-05-25T02:00:48;11.70;;;6.67;;
54983;SDS011;40884;53.562;9.940;2023-05-25T02:01:49;16.23;;;7.57;;
54983;SDS011;40884;53.562;9.940;2023-05-25T02:02:49;14.90;;;6.97;;
54983;SDS011;40884;53.562;9.940;2023-05-25T02:03:50;13.10;;;6.47;;
54983;SDS011;40884;53.562;9.940;2023-05-25T02:04:52;11.13;;;6.87;;
54983;SDS011;40884;53.562;9.940;2023-05-25T02:05:52;13.50;;;7.00;;
54983;SDS011;40884;53.562;9.940;2023-05-25T02:06:52;13.47;;;6.97;;
54983;SDS011;40884;53.562;9.940;2023-05-25T02:07:53;14.70;;;7.43;;
54983;SDS011;40884;53.562;9.940;2023-05-25T02:08:53;13.53;;;7.80;;
54983;SDS011;40884;53.562;9.940;2023-05-25T02:09:54;11.80;;;7.00;;
54983;SDS011;40884;53.562;9.940;2023-05-25T02:10:54;16.37;;;7.97;;
54983;SDS011;40884;53.562;9.940;2023-05-25T02:11:54;15.70;;;7.67;;
54983;SDS011;40884;53.562;9.940;2023-05-25T02:12:54;15.83;;;7.83;;
54983;SDS011;40884;53.562;9.940;2023-05-25T02:13:54;14.67;;;7.60;;
54983;SDS011;40884;53.562;9.940;2023-05-25T02:14:55;12.63;;;7.60;;
54983;SDS011;40884;53.562;9.940;2023-05-25T02:15:55;14.67;;;7.60;;
54983;SDS011;40884;53.562;9.940;2023-05-25T02:16:55;15.03;;;7.70;;
54983;SDS011;40884;53.562;9.940;2023-05-25T02:17:55;16.63;;;7.23;;
54983;SDS011;40884;53.562;9.940;2023-05-25T02:18:55;13.70;;;7.30;;
54983;SDS011;40884;53.562;9.940;2023-05-25T02:19:55;15.50;;;7.67;;
54983;SDS011;40884;53.562;9.940;2023-05-25T02:20:56;12.07;;;7.03;;
54983;SDS011;40884;53.562;9.940;2023-05-25T02:21:57;11.67;;;6.60;;
54983;SDS011;40884;53.562;9.940;2023-05-25T02:22:58;15.23;;;7.43;;
54983;SDS011;40884;53.562;9.940;2023-05-25T02:23:59;14.30;;;8.17;;
54983;SDS011;40884;53.562;9.940;2023-05-25T02:24:59;14.77;;;7.83;;
54983;SDS011;40884;53.562;9.940;2023-05-25T02:25:59;17.03;;;7.73;;
54983;SDS011;40884;53.562;9.940;2023-05-25T02:26:59;13.53;;;7.80;;
54983;SDS011;40884;53.562;9.940;2023-05-25T02:27:59;18.43;;;7.67;;
54983;SDS011;40884;53.562;9.940;2023-05-25T02:28:59;11.83;;;7.57;;
54983;SDS011;40884;53.562;9.940;2023-05-25T02:30:00;15.93;;;8.30;;
54983;SDS011;40884;53.562;9.940;2023-05-25T02:31:01;16.87;;;8.63;;
54983;SDS011;40884;53.562;9.940;2023-05-25T02:32:02;17.13;;;8.77;;
54983;SDS011;40884;53.562;9.940;2023-05-25T02:33:02;14.87;;;7.80;;
54983;SDS011;40884;53.562;9.940;2023-05-25T02:34:02;16.30;;;7.57;;
54983;SDS011;40884;53.562;9.940;2023-05-25T02:35:02;13.60;;;7.07;;
54983;SDS011;40884;53.562;9.940;2023-05-25T02:36:03;14.70;;;7.03;;
54983;SDS011;40884;53.562;9.940;2023-05-25T02:37:03;18.50;;;8.20;;
54983;SDS011;40884;53.562;9.940;2023-05-25T02:38:03;16.10;;;7.47;;
54983;SDS011;40884;53.562;9.940;2023-05-25T02:39:03;17.67;;;8.77;;
54983;SDS011;40884;53.562;9.940;2023-05-25T02:40:04;15.33;;;7.10;;
54983;SDS011;40884;53.562;9.940;2023-05-25T02:41:04;15.27;;;7.43;;
54983;SDS011;40884;53.562;9.940;2023-05-25T02:42:04;13.50;;;6.83;;
54983;SDS011;40884;53.562;9.940;2023-05-25T02:43:05;14.03;;;7.70;;
54983;SDS011;40884;53.562;9.940;2023-05-25T02:44:05;14.37;;;7.13;;
54983;SDS011;40884;53.562;9.940;2023-05-25T02:45:07;16.93;;;7.07;;
54983;SDS011;40884;53.562;9.940;2023-05-25T02:46:08;16.00;;;7.20;;
54983;SDS011;40884;53.562;9.940;2023-05-25T02:47:08;12.70;;;7.03;;
54983;SDS011;40884;53.562;9.940;2023-05-25T02:48:08;13.20;;;7.33;;
54983;SDS011;40884;53.562;9.940;2023-05-25T02:49:09;15.00;;;8.07;;
54983;SDS011;40884;53.562;9.940;2023-05-25T02:50:10;15.43;;;7.93;;
54983;SDS011;40884;53.562;9.940;2023-05-25T02:51:15;15.23;;;7.50;;
54983;SDS011;40884;53.562;9.940;2023-05-25T02:52:16;14.57;;;7.57;;
54983;SDS011;40884;53.562;9.940;2023-05-25T02:53:16;15.83;;;8.10;;
54983;SDS011;40884;53.562;9.940;2023-05-25T02:54:16;15.40;;;7.60;;
54983;SDS011;40884;53.562;9.940;2023-05-25T02:55:17;15.33;;;7.33;;
54983;SDS011;40884;53.562;9.940;2023-05-25T02:56:17;16.67;;;8.13;;
54983;SDS011;40884;53.562;9.940;2023-05-25T02:57:18;13.93;;;7.23;;
54983;SDS011;40884;53.562;9.940;2023-05-25T02:58:18;13.60;;;7.80;;
54983;SDS011;40884;53.562;9.940;2023-05-25T02:59:38;14.77;;;7.60;;
54983;SDS011;40884;53.562;9.940;2023-05-25T03:00:38;13.80;;;7.07;;
54983;SDS011;40884;53.562;9.940;2023-05-25T03:01:39;15.77;;;7.97;;
54983;SDS011;40884;53.562;9.940;2023-05-25T03:02:39;15.50;;;7.73;;
54983;SDS011;40884;53.562;9.940;2023-05-25T03:03:39;15.70;;;7.47;;
54983;SDS011;40884;53.562;9.940;2023-05-25T03:04:40;15.70;;;7.47;;
54983;SDS011;40884;53.562;9.940;2023-05-25T03:05:40;16.63;;;7.30;;
54983;SDS011;40884;53.562;9.940;2023-05-25T03:06:41;15.63;;;8.77;;
54983;SDS011;40884;53.562;9.940;2023-05-25T03:07:47;20.23;;;9.07;;
54983;SDS011;40884;53.562;9.940;2023-05-25T03:08:48;15.77;;;8.10;;
54983;SDS011;40884;53.562;9.940;2023-05-25T03:09:48;14.93;;;7.73;;
54983;SDS011;40884;53.562;9.940;2023-05-25T03:10:48;14.77;;;7.57;;
54983;SDS011;40884;53.562;9.940;2023-05-25T03:11:50;15.00;;;7.57;;
54983;SDS011;40884;53.562;9.940;2023-05-25T03:12:52;14.87;;;7.57;;
54983;SDS011;40884;53.562;9.940;2023-05-25T03:13:53;14.00;;;6.87;;
54983;SDS011;40884;53.562;9.940;2023-05-25T03:14:55;15.33;;;7.33;;
54983;SDS011;40884;53.562;9.940;2023-05-25T03:15:55;15.27;;;7.10;;
54983;SDS011;40884;53.562;9.940;2023-05-25T03:16:56;15.40;;;7.00;;
54983;SDS011;40884;53.562;9.940;2023-05-25T03:17:57;16.17;;;6.43;;
54983;SDS011;40884;53.562;9.940;2023-05-25T03:18:57;13.60;;;7.10;;
54983;SDS011;40884;53.562;9.940;2023-05-25T03:19:57;13.80;;;6.83;;
54983;SDS011;40884;53.562;9.940;2023-05-25T03:20:59;14.60;;;6.93;;
54983;SDS011;40884;53.562;9.940;2023-05-25T03:22:00;15.87;;;7.37;;
54983;SDS011;40884;53.562;9.940;2023-05-25T03:23:01;15.57;;;6.70;;
54983;SDS011;40884;53.562;9.940;2023-05-25T03:24:01;16.70;;;7.20;;
54983;SDS011;40884;53.562;9.940;2023-05-25T03:25:02;13.57;;;6.37;;
54983;SDS011;40884;53.562;9.940;2023-05-25T03:26:02;13.07;;;6.87;;
54983;SDS011;40884;53.562;9.940;2023-05-25T03:27:02;12.53;;;6.77;;
54983;SDS011;40884;53.562;9.940;2023-05-25T03:28:02;14.77;;;6.70;;
54983;SDS011;40884;53.562;9.940;2023-05-25T03:29:02;16.77;;;7.40;;
54983;SDS011;40884;53.562;9.940;2023-05-25T03:30:03;14.77;;;6.60;;
54983;SDS011;40884;53.562;9.940;2023-05-25T03:31:03;14.43;;;7.30;;
54983;SDS011;40884;53.562;9.940;2023-05-25T03:32:03;13.80;;;6.50;;
54983;SDS011;40884;53.562;9.940;2023-05-25T03:33:06;14.30;;;6.97;;
54983;SDS011;40884;53.562;9.940;2023-05-25T03:34:13;17.87;;;7.63;;
54983;SDS011;40884;53.562;9.940;2023-05-25T03:35:14;15.37;;;7.30;;
54983;SDS011;40884;53.562;9.940;2023-05-25T03:36:14;18.13;;;7.07;;
54983;SDS011;40884;53.562;9.940;2023-05-25T03:37:15;15.10;;;6.93;;
54983;SDS011;40884;53.562;9.940;2023-05-25T03:38:15;14.67;;;7.20;;
54983;SDS011;40884;53.562;9.940;2023-05-25T03:39:16;14.30;;;7.10;;
54983;SDS011;40884;53.562;9.940;2023-05-25T03:40:16;16.17;;;6.93;;
54983;SDS011;40884;53.562;9.940;2023-05-25T03:41:16;15.13;;;7.10;;
54983;SDS011;40884;53.562;9.940;2023-05-25T03:42:17;15.70;;;7.17;;
54983;SDS011;40884;53.562;9.940;2023-05-25T03:43:17;13.87;;;7.13;;
54983;SDS011;40884;53.562;9.940;2023-05-25T03:44:19;17.70;;;7.13;;
54983;SDS011;40884;53.562;9.940;2023-05-25T03:45:20;12.03;;;6.43;;
54983;SDS011;40884;53.562;9.940;2023-05-25T03:46:20;15.67;;;7.03;;
54983;SDS011;40884;53.562;9.940;2023-05-25T03:47:20;13.77;;;6.87;;
54983;SDS011;40884;53.562;9.940;2023-05-25T03:48:21;11.43;;;7.03;;
54983;SDS011;40884;53.562;9.940;2023-05-25T03:49:21;11.43;;;6.73;;
54983;SDS011;40884;53.562;9.940;2023-05-25T03:50:21;15.40;;;6.93;;
54983;SDS011;40884;53.562;9.940;2023-05-25T03:51:21;16.67;;;6.93;;
54983;SDS011;40884;53.562;9.940;2023-05-25T03:52:22;13.33;;;7.10;;
54983;SDS011;40884;53.562;9.940;2023-05-25T03:53:22;15.77;;;7.27;;
54983;SDS011;40884;53.562;9.940;2023-05-25T03:54:22;14.40;;;6.87;;
54983;SDS011;40884;53.562;9.940;2023-05-25T03:55:22;12.93;;;6.43;;
54983;SDS011;40884;53.562;9.940;2023-05-25T03:56:22;14.27;;;7.10;;
54983;SDS011;40884;53.562;9.940;2023-05-25T03:57:22;16.20;;;7.33;;
54983;SDS011;40884;53.562;9.940;2023-05-25T03:58:22;16.63;;;6.90;;
54983;SDS011;40884;53.562;9.940;2023-05-25T03:59:23;11.53;;;6.60;;
54983;SDS011;40884;53.562;9.940;2023-05-25T04:00:23;12.03;;;6.60;;
54983;SDS011;40884;53.562;9.940;2023-05-25T04:01:23;15.20;;;6.30;;
54983;SDS011;40884;53.562;9.940;2023-05-25T04:02:23;14.03;;;6.73;;
54983;SDS011;40884;53.562;9.940;2023-05-25T04:03:23;16.00;;;6.73;;
54983;SDS011;40884;53.562;9.940;2023-05-25T04:04:23;13.57;;;6.00;;
54983;SDS011;40884;53.562;9.940;2023-05-25T04:05:23;13.33;;;5.80;;
54983;SDS011;40884;53.562;9.940;2023-05-25T04:06:23;15.07;;;6.63;;
54983;SDS011;40884;53.562;9.940;2023-05-25T04:07:24;10.83;;;5.73;;
54983;SDS011;40884;53.562;9.940;2023-05-25T04:08:25;13.57;;;6.90;;
54983;SDS011;40884;53.562;9.940;2023-05-25T04:09:25;17.53;;;6.20;;
54983;SDS011;40884;53.562;9.940;2023-05-25T04:10:28;13.93;;;6.30;;
54983;SDS011;40884;53.562;9.940;2023-05-25T04:11:29;11.17;;;6.23;;
54983;SDS011;40884;53.562;9.940;2023-05-25T04:12:29;10.80;;;6.23;;
54983;SDS011;40884;53.562;9.940;2023-05-25T04:13:29;16.80;;;6.90;;
54983;SDS011;40884;53.562;9.940;2023-05-25T04:14:29;15.07;;;6.67;;
54983;SDS011;40884;53.562;9.940;2023-05-25T04:15:29;11.23;;;5.43;;
54983;SDS011;40884;53.562;9.940;2023-05-25T04:16:37;12.73;;;5.20;;
54983;SDS011;40884;53.562;9.940;2023-05-25T04:17:37;10.63;;;5.23;;
54983;SDS011;40884;53.562;9.940;2023-05-25T04:18:38;13.50;;;5.47;;
54983;SDS011;40884;53.562;9.940;2023-05-25T04:19:38;10.80;;;6.30;;
54983;SDS011;40884;53.562;9.940;2023-05-25T04:20:38;12.00;;;5.60;;
54983;SDS011;40884;53.562;9.940;2023-05-25T04:21:39;13.60;;;5.97;;
54983;SDS011;40884;53.562;9.940;2023-05-25T04:22:40;12.70;;;5.00;;
54983;SDS011;40884;53.562;9.940;2023-05-25T04:23:41;10.23;;;5.27;;
54983;SDS011;40884;53.562;9.940;2023-05-25T04:24:41;9.77;;;4.63;;
54983;SDS011;40884;53.562;9.940;2023-05-25T04:25:41;10.20;;;4.70;;
54983;SDS011;40884;53.562;9.940;2023-05-25T04:26:41;9.43;;;4.87;;
54983;SDS011;40884;53.562;9.940;2023-05-25T04:27:41;9.73;;;4.90;;
54983;SDS011;40884;53.562;9.940;2023-05-25T04:28:42;8.33;;;4.90;;
54983;SDS011;40884;53.562;9.940;2023-05-25T04:29:52;9.07;;;4.60;;
54983;SDS011;40884;53.562;9.940;2023-05-25T04:31:16;10.57;;;4.60;;
54983;SDS011;40884;53.562;9.940;2023-05-25T04:32:24;10.77;;;4.50;;
54983;SDS011;40884;53.562;9.940;2023-05-25T04:33:28;12.77;;;4.70;;
54983;SDS011;40884;53.562;9.940;2023-05-25T04:34:51;12.77;;;5.97;;
54983;SDS011;40884;53.562;9.940;2023-05-25T04:35:56;8.77;;;4.63;;
54983;SDS011;40884;53.562;9.940;2023-05-25T04:36:57;10.97;;;5.20;;
54983;SDS011;40884;53.562;9.940;2023-05-25T04:37:57;11.37;;;5.57;;
54983;SDS011;40884;53.562;9.940;2023-05-25T04:38:58;15.40;;;5.43;;
54983;SDS011;40884;53.562;9.940;2023-05-25T04:39:58;10.43;;;5.57;;
54983;SDS011;40884;53.562;9.940;2023-05-25T04:40:58;10.93;;;4.90;;
54983;SDS011;40884;53.562;9.940;2023-05-25T04:41:58;11.27;;;4.80;;
54983;SDS011;40884;53.562;9.940;2023-05-25T04:42:58;9.90;;;4.57;;
54983;SDS011;40884;53.562;9.940;2023-05-25T04:43:59;9.50;;;4.57;;
54983;SDS011;40884;53.562;9.940;2023-05-25T04:44:59;11.10;;;5.13;;
54983;SDS011;40884;53.562;9.940;2023-05-25T04:45:59;10.77;;;5.13;;
54983;SDS011;40884;53.562;9.940;2023-05-25T04:46:59;9.37;;;4.80;;
54983;SDS011;40884;53.562;9.940;2023-05-25T04:48:04;12.07;;;4.90;;
54983;SDS011;40884;53.562;9.940;2023-05-25T04:49:04;7.83;;;4.53;;
54983;SDS011;40884;53.562;9.940;2023-05-25T04:50:04;8.90;;;4.67;;
54983;SDS011;40884;53.562;9.940;2023-05-25T04:51:05;12.03;;;5.43;;
54983;SDS011;40884;53.562;9.940;2023-05-25T04:52:06;10.80;;;5.17;;
54983;SDS011;40884;53.562;9.940;2023-05-25T04:53:06;11.73;;;5.00;;
54983;SDS011;40884;53.562;9.940;2023-05-25T04:54:06;11.13;;;4.37;;
54983;SDS011;40884;53.562;9.940;2023-05-25T04:55:07;9.17;;;4.37;;
54983;SDS011;40884;53.562;9.940;2023-05-25T04:56:10;11.97;;;5.03;;
54983;SDS011;40884;53.562;9.940;2023-05-25T04:57:10;8.57;;;4.67;;
54983;SDS011;40884;53.562;9.940;2023-05-25T04:58:10;11.50;;;4.97;;
54983;SDS011;40884;53.562;9.940;2023-05-25T04:59:11;9.90;;;5.07;;
54983;SDS011;40884;53.562;9.940;2023-05-25T05:00:11;9.33;;;4.63;;
54983;SDS011;40884;53.562;9.940;2023-05-25T05:01:12;10.07;;;4.90;;
54983;SDS011;40884;53.562;9.940;2023-05-25T05:02:12;12.67;;;4.97;;
54983;SDS011;40884;53.562;9.940;2023-05-25T05:03:13;10.60;;;4.90;;
54983;SDS011;40884;53.562;9.940;2023-05-25T05:04:13;8.90;;;4.47;;
54983;SDS011;40884;53.562;9.940;2023-05-25T05:05:13;9.93;;;4.73;;
54983;SDS011;40884;53.562;9.940;2023-05-25T05:06:14;10.27;;;4.57;;
54983;SDS011;40884;53.562;9.940;2023-05-25T05:07:14;10.73;;;4.40;;
54983;SDS011;40884;53.562;9.940;2023-05-25T05:08:14;11.13;;;4.43;;
54983;SDS011;40884;53.562;9.940;2023-05-25T05:09:14;10.93;;;5.07;;
54983;SDS011;40884;53.562;9.940;2023-05-25T05:10:14;11.10;;;4.60;;
54983;SDS011;40884;53.562;9.940;2023-05-25T05:11:19;9.53;;;4.40;;
54983;SDS011;40884;53.562;9.940;2023-05-25T05:12:19;10.73;;;4.47;;
54983;SDS011;40884;53.562;9.940;2023-05-25T05:13:22;12.57;;;4.83;;
54983;SDS011;40884;53.562;9.940;2023-05-25T05:14:23;13.50;;;5.30;;
54983;SDS011;40884;53.562;9.940;2023-05-25T05:15:23;13.47;;;5.07;;
54983;SDS011;40884;53.562;9.940;2023-05-25T05:16:30;11.40;;;4.53;;
54983;SDS011;40884;53.562;9.940;2023-05-25T05:17:30;12.43;;;4.67;;
54983;SDS011;40884;53.562;9.940;2023-05-25T05:18:30;10.70;;;4.90;;
54983;SDS011;40884;53.562;9.940;2023-05-25T05:19:31;8.97;;;4.47;;
54983;SDS011;40884;53.562;9.940;2023-05-25T05:20:31;11.20;;;4.63;;
54983;SDS011;40884;53.562;9.940;2023-05-25T05:21:32;11.07;;;4.60;;
54983;SDS011;40884;53.562;9.940;2023-05-25T05:22:35;11.20;;;4.10;;
54983;SDS011;40884;53.562;9.940;2023-05-25T05:23:36;9.43;;;4.33;;
54983;SDS011;40884;53.562;9.940;2023-05-25T05:24:36;11.73;;;4.73;;
54983;SDS011;40884;53.562;9.940;2023-05-25T05:25:37;11.43;;;4.50;;
54983;SDS011;40884;53.562;9.940;2023-05-25T05:26:38;8.87;;;4.00;;
54983;SDS011;40884;53.562;9.940;2023-05-25T05:27:39;8.63;;;3.83;;
54983;SDS011;40884;53.562;9.940;2023-05-25T05:28:46;11.37;;;4.43;;
54983;SDS011;40884;53.562;9.940;2023-05-25T05:29:46;12.20;;;4.50;;
54983;SDS011;40884;53.562;9.940;2023-05-25T05:30:46;11.30;;;3.80;;
54983;SDS011;40884;53.562;9.940;2023-05-25T05:31:47;11.87;;;4.20;;
54983;SDS011;40884;53.562;9.940;2023-05-25T05:32:47;9.13;;;3.93;;
54983;SDS011;40884;53.562;9.940;2023-05-25T05:33:49;9.53;;;4.13;;
54983;SDS011;40884;53.562;9.940;2023-05-25T05:34:50;10.80;;;4.13;;
54983;SDS011;40884;53.562;9.940;2023-05-25T05:36:05;11.27;;;4.57;;
54983;SDS011;40884;53.562;9.940;2023-05-25T05:37:05;10.23;;;4.20;;
54983;SDS011;40884;53.562;9.940;2023-05-25T05:38:05;8.87;;;3.47;;
54983;SDS011;40884;53.562;9.940;2023-05-25T05:39:06;9.30;;;3.53;;
54983;SDS011;40884;53.562;9.940;2023-05-25T05:40:07;11.03;;;3.73;;
54983;SDS011;40884;53.562;9.940;2023-05-25T05:41:08;9.07;;;3.93;;
54983;SDS011;40884;53.562;9.940;2023-05-25T05:42:09;11.07;;;4.93;;
54983;SDS011;40884;53.562;9.940;2023-05-25T05:43:09;8.87;;;3.80;;
54983;SDS011;40884;53.562;9.940;2023-05-25T05:44:10;10.23;;;3.80;;
54983;SDS011;40884;53.562;9.940;2023-05-25T05:45:10;18.93;;;4.33;;
54983;SDS011;40884;53.562;9.940;2023-05-25T05:46:11;9.00;;;4.17;;
54983;SDS011;40884;53.562;9.940;2023-05-25T05:47:13;10.60;;;3.87;;
54983;SDS011;40884;53.562;9.940;2023-05-25T05:48:13;11.87;;;3.83;;
54983;SDS011;40884;53.562;9.940;2023-05-25T05:49:13;10.93;;;3.93;;
54983;SDS011;40884;53.562;9.940;2023-05-25T05:50:13;9.70;;;3.60;;
54983;SDS011;40884;53.562;9.940;2023-05-25T05:51:14;10.63;;;3.60;;
54983;SDS011;40884;53.562;9.940;2023-05-25T05:52:14;10.73;;;3.97;;
54983;SDS011;40884;53.562;9.940;2023-05-25T05:53:15;9.63;;;3.63;;
54983;SDS011;40884;53.562;9.940;2023-05-25T05:54:15;13.90;;;4.20;;
54983;SDS011;40884;53.562;9.940;2023-05-25T05:55:15;11.40;;;3.57;;
54983;SDS011;40884;53.562;9.940;2023-05-25T05:56:17;8.03;;;3.73;;
54983;SDS011;40884;53.562;9.940;2023-05-25T05:57:17;8.07;;;3.50;;
54983;SDS011;40884;53.562;9.940;2023-05-25T05:58:17;10.50;;;4.13;;
54983;SDS011;40884;53.562;9.940;2023-05-25T05:59:19;11.53;;;3.80;;
54983;SDS011;40884;53.562;9.940;2023-05-25T06:00:20;10.10;;;3.80;;
54983;SDS011;40884;53.562;9.940;2023-05-25T06:01:21;11.00;;;4.27;;
54983;SDS011;40884;53.562;9.940;2023-05-25T06:02:21;9.07;;;3.97;;
54983;SDS011;40884;53.562;9.940;2023-05-25T06:03:22;10.13;;;4.40;;
54983;SDS011;40884;53.562;9.940;2023-05-25T06:04:22;12.60;;;3.53;;